createdAt,value
2022-11-27T00:00:35.298Z,18.00
2022-11-27T00:05:59.479Z,19.40
2022-11-27T00:11:10.531Z,17.10
2022-11-27T00:16:15.873Z,16.50
2022-11-27T00:21:22.559Z,24.30
2022-11-27T00:26:30.882Z,21.00
2022-11-27T00:31:37.860Z,20.00
2022-11-27T00:36:46.549Z,23.10
2022-11-27T00:41:52.084Z,21.10
2022-11-27T00:46:56.205Z,15.70
2022-11-27T00:51:59.984Z,25.40
2022-11-27T00:57:04.476Z,23.50
2022-11-27T01:02:08.319Z,23.50
2022-11-27T01:07:12.623Z,25.00
2022-11-27T01:12:16.669Z,20.50
2022-11-27T01:17:20.442Z,18.90
2022-11-27T01:22:24.319Z,26.10
2022-11-27T01:27:28.209Z,21.80
2022-11-27T01:32:31.716Z,24.80
2022-11-27T01:37:39.378Z,21.80
2022-11-27T01:42:43.076Z,21.10
2022-11-27T01:47:50.702Z,19.40
2022-11-27T01:52:59.011Z,19.00
2022-11-27T01:58:08.235Z,25.10
2022-11-27T02:03:12.326Z,26.60
2022-11-27T02:08:17.195Z,21.80
2022-11-27T02:13:29.559Z,15.20
2022-11-27T02:18:43.015Z,26.80
2022-11-27T02:24:01.578Z,23.40
2022-11-27T02:29:08.484Z,23.10
2022-11-27T02:34:22.708Z,24.40
2022-11-27T02:39:37.687Z,25.30
2022-11-27T02:44:46.426Z,30.80
2022-11-27T02:49:56.721Z,23.70
2022-11-27T02:55:05.623Z,30.10
2022-11-27T03:00:12.572Z,24.90
2022-11-27T03:05:20.836Z,22.90
2022-11-27T03:10:34.047Z,25.50
2022-11-27T03:15:45.840Z,31.50
2022-11-27T03:20:56.943Z,25.10
2022-11-27T03:26:00.809Z,28.20
2022-11-27T03:31:04.961Z,33.30
2022-11-27T03:36:14.861Z,26.80
2022-11-27T03:41:25.302Z,30.40
2022-11-27T03:46:40.091Z,32.70
2022-11-27T03:51:54.176Z,29.70
2022-11-27T03:57:06.600Z,33.60
2022-11-27T04:02:14.339Z,32.50
2022-11-27T04:07:18.964Z,34.80
2022-11-27T04:12:22.656Z,28.10
2022-11-27T04:17:26.241Z,35.10
2022-11-27T04:22:29.789Z,29.70
2022-11-27T04:27:33.820Z,34.70
2022-11-27T04:32:37.541Z,29.50
2022-11-27T04:37:41.184Z,29.90
2022-11-27T04:42:44.773Z,38.50
2022-11-27T04:47:48.850Z,36.90
2022-11-27T04:52:52.757Z,31.10
2022-11-27T04:57:56.499Z,32.40
2022-11-27T05:03:00.665Z,31.80
2022-11-27T05:08:04.961Z,30.40
2022-11-27T05:13:08.591Z,30.90
2022-11-27T05:18:12.309Z,30.40
2022-11-27T05:23:15.756Z,28.90
2022-11-27T05:28:26.674Z,40.80
2022-11-27T05:33:31.132Z,36.20
2022-11-27T05:38:35.251Z,30.70
2022-11-27T05:43:39.016Z,31.00
2022-11-27T05:48:42.655Z,31.50
2022-11-27T05:53:46.788Z,30.10
2022-11-27T05:58:51.626Z,29.60
2022-11-27T06:03:55.678Z,33.70
2022-11-27T06:09:00.307Z,30.20
2022-11-27T06:14:06.826Z,35.30
2022-11-27T06:19:10.375Z,35.60
2022-11-27T06:24:14.152Z,31.30
2022-11-27T06:29:17.978Z,35.40
2022-11-27T06:34:21.613Z,31.30
2022-11-27T06:39:25.762Z,26.30
2022-11-27T06:44:29.425Z,30.70
2022-11-27T06:49:33.179Z,33.40
2022-11-27T06:54:36.925Z,30.80
2022-11-27T06:59:40.838Z,28.00
2022-11-27T07:04:44.786Z,25.90
2022-11-27T07:09:48.698Z,27.50
2022-11-27T07:14:52.137Z,26.50
2022-11-27T07:19:55.755Z,27.70
2022-11-27T07:24:59.259Z,27.40
2022-11-27T07:30:03.330Z,28.00
2022-11-27T07:35:08.892Z,27.70
2022-11-27T07:40:15.022Z,28.00
2022-11-27T07:45:18.886Z,27.20
2022-11-27T07:50:22.605Z,25.60
2022-11-27T07:55:26.230Z,32.20
2022-11-27T08:00:30.906Z,27.50
2022-11-27T08:05:39.667Z,30.80
2022-11-27T08:10:44.400Z,29.80
2022-11-27T08:15:48.411Z,32.30
2022-11-27T08:20:52.819Z,32.80
2022-11-27T08:25:57.097Z,33.60
2022-11-27T08:31:04.323Z,29.00
2022-11-27T08:36:14.980Z,31.50
2022-11-27T08:41:22.333Z,28.90
2022-11-27T08:46:26.258Z,32.20
2022-11-27T08:51:30.316Z,36.10
2022-11-27T08:56:34.299Z,32.50
2022-11-27T09:01:38.731Z,36.40
2022-11-27T09:06:43.835Z,39.70
2022-11-27T09:11:48.056Z,28.60
2022-11-27T09:16:53.666Z,27.60
2022-11-27T09:21:58.144Z,33.50
2022-11-27T09:27:02.988Z,28.50
2022-11-27T09:32:06.973Z,28.60
2022-11-27T09:37:11.547Z,27.70
2022-11-27T09:42:29.769Z,28.40
2022-11-27T09:51:46.760Z,24.70
2022-11-27T09:56:56.467Z,26.00
2022-11-27T10:02:03.849Z,28.60
2022-11-27T10:07:22.409Z,24.10
2022-11-27T10:12:37.337Z,27.40
2022-11-27T10:17:52.478Z,27.90
2022-11-27T10:23:06.563Z,23.10
2022-11-27T10:28:28.171Z,26.50
2022-11-27T10:33:43.204Z,28.00
2022-11-27T10:38:52.169Z,24.40
2022-11-27T10:44:12.785Z,26.50
2022-11-27T10:49:20.999Z,25.60
2022-11-27T10:54:32.588Z,30.50
2022-11-27T10:59:45.660Z,30.60
2022-11-27T11:05:16.276Z,28.40
2022-11-27T11:10:30.143Z,30.60
2022-11-27T11:20:48.351Z,28.10
2022-11-27T11:25:59.728Z,25.00
2022-11-27T11:31:14.125Z,34.20
2022-11-27T11:36:22.738Z,23.20
2022-11-27T11:41:39.771Z,26.30
2022-11-27T11:46:55.161Z,26.10
2022-11-27T11:52:22.053Z,26.10
2022-11-27T11:57:53.051Z,16.50
2022-11-27T12:03:26.558Z,19.60
2022-11-27T12:08:47.221Z,25.20
2022-11-27T12:14:11.516Z,24.20
2022-11-27T12:19:40.831Z,27.70
2022-11-27T12:24:57.105Z,23.00
2022-11-27T12:30:11.698Z,24.20
2022-11-27T12:35:44.430Z,25.20
2022-11-27T12:41:13.440Z,28.70
2022-11-27T12:51:52.196Z,27.20
2022-11-27T12:57:02.675Z,22.90
2022-11-27T13:02:24.861Z,25.50
2022-11-27T13:07:40.498Z,23.10
2022-11-27T13:12:56.724Z,24.70
2022-11-27T13:18:14.891Z,23.60
2022-11-27T13:23:22.708Z,27.90
2022-11-27T13:28:38.356Z,35.00
2022-11-27T13:33:47.723Z,35.40
2022-11-27T13:39:01.395Z,38.20
2022-11-27T13:44:23.246Z,38.50
2022-11-27T13:49:33.202Z,35.80
2022-11-27T13:54:52.490Z,33.00
2022-11-27T14:00:04.084Z,34.20
2022-11-27T14:05:14.378Z,27.40
2022-11-27T14:10:25.658Z,24.40
2022-11-27T14:15:35.606Z,28.20
2022-11-27T14:20:51.001Z,26.80
2022-11-27T14:26:14.702Z,28.00
2022-11-27T14:31:40.736Z,29.20
2022-11-27T14:36:52.755Z,28.10
2022-11-27T14:42:01.785Z,29.40
2022-11-27T14:47:18.719Z,31.70
2022-11-27T14:52:27.860Z,32.30
2022-11-27T14:57:35.487Z,29.90
2022-11-27T15:02:43.097Z,33.30
2022-11-27T15:07:53.692Z,28.10
2022-11-27T15:13:03.532Z,35.60
2022-11-27T15:18:20.566Z,30.60
2022-11-27T15:23:31.789Z,34.50
2022-11-27T15:28:41.455Z,31.80
2022-11-27T15:33:58.714Z,38.30
2022-11-27T15:39:22.617Z,33.20
2022-11-27T15:44:32.960Z,37.50
2022-11-27T15:49:40.551Z,32.10
2022-11-27T15:54:48.183Z,32.90
2022-11-27T15:59:55.555Z,32.50
2022-11-27T16:10:10.905Z,52.00
2022-11-27T16:15:18.531Z,49.00
2022-11-27T16:20:26.046Z,39.80
2022-11-27T16:25:33.324Z,38.10
2022-11-27T16:30:40.462Z,33.10
2022-11-27T16:35:47.674Z,31.50
2022-11-27T16:41:00.493Z,31.40
2022-11-27T16:51:45.419Z,27.90
2022-11-27T16:56:53.081Z,33.00
2022-11-27T17:02:00.838Z,30.50
2022-11-27T17:07:08.321Z,31.80
2022-11-27T17:12:16.471Z,32.00
2022-11-27T17:17:24.514Z,32.80
2022-11-27T17:22:32.789Z,33.90
2022-11-27T17:27:39.907Z,30.40
2022-11-27T17:37:52.788Z,33.20
2022-11-27T17:42:59.873Z,36.90
2022-11-27T17:48:19.863Z,34.80
2022-11-27T17:53:35.295Z,32.80
2022-11-27T17:58:42.606Z,34.40
2022-11-27T18:03:51.059Z,33.00
2022-11-27T18:08:59.417Z,34.40
2022-11-27T18:14:07.026Z,38.50
2022-11-27T18:19:15.056Z,41.00
2022-11-27T18:24:23.899Z,37.20
2022-11-27T18:29:32.459Z,41.90
2022-11-27T18:34:39.984Z,42.70
2022-11-27T18:39:47.845Z,39.00
2022-11-27T18:44:55.561Z,43.30
2022-11-27T18:55:11.952Z,41.30
2022-11-27T19:00:21.330Z,46.50
2022-11-27T19:05:28.456Z,43.80
2022-11-27T19:10:35.667Z,45.80
2022-11-27T19:20:49.302Z,39.80
2022-11-27T19:25:57.040Z,39.60
2022-11-27T19:36:15.147Z,44.60
2022-11-27T19:41:22.973Z,43.90
2022-11-27T19:46:33.000Z,52.40
2022-11-27T19:51:42.263Z,46.40
2022-11-27T19:56:51.741Z,49.10
2022-11-27T20:01:59.144Z,52.30
2022-11-27T20:07:07.000Z,46.60
2022-11-27T20:12:15.098Z,52.70
2022-11-27T20:17:22.866Z,50.20
2022-11-27T20:22:30.274Z,44.40
2022-11-27T20:27:38.403Z,52.00
2022-11-27T20:32:46.003Z,37.90
2022-11-27T20:37:53.461Z,45.40
2022-11-27T20:43:01.224Z,46.80
2022-11-27T20:48:09.832Z,54.10
2022-11-27T20:53:17.794Z,46.30
2022-11-27T20:58:25.926Z,47.70
2022-11-27T21:03:33.635Z,52.00
2022-11-27T21:08:41.217Z,49.50
2022-11-27T21:13:50.844Z,47.70
2022-11-27T21:19:00.024Z,53.00
2022-11-27T21:24:10.805Z,50.30
2022-11-27T21:29:25.090Z,49.20
2022-11-27T21:34:33.453Z,52.00
2022-11-27T21:39:41.691Z,51.10
2022-11-27T21:44:49.594Z,52.80
2022-11-27T21:49:56.958Z,51.10
2022-11-27T22:00:15.342Z,43.20
2022-11-27T22:05:22.872Z,53.40
2022-11-27T22:10:30.149Z,60.00
2022-11-27T22:20:45.672Z,56.20
2022-11-27T22:25:53.120Z,51.20
2022-11-27T22:36:15.376Z,48.40
2022-11-27T22:41:25.248Z,51.00
2022-11-27T22:46:35.618Z,54.60
2022-11-27T22:51:43.274Z,55.60
2022-11-27T22:56:51.002Z,51.40
2022-11-27T23:01:58.359Z,53.40
2022-11-27T23:07:06.566Z,47.00
2022-11-27T23:12:14.704Z,50.00
2022-11-27T23:17:22.752Z,62.40
2022-11-27T23:22:30.087Z,57.70
2022-11-27T23:27:37.586Z,56.80
2022-11-27T23:32:45.419Z,61.70
2022-11-27T23:37:52.749Z,55.80
2022-11-27T23:42:59.704Z,58.60
2022-11-27T23:48:09.357Z,59.30
2022-11-27T23:53:16.359Z,60.20
2022-11-27T23:58:24.912Z,56.00
